sensor_id;sensor_type;location;lat;lon;timestamp;P1;durP1;ratioP1;P2;durP2;ratioP2
43620;SDS011;29213;50.770;7.298;2023-08-12T00:00:16;13.10;;;9.52;;
43620;SDS011;29213;50.770;7.298;2023-08-12T00:02:42;9.93;;;6.20;;
43620;SDS011;29213;50.770;7.298;2023-08-12T00:05:09;10.48;;;5.97;;
43620;SDS011;29213;50.770;7.298;2023-08-12T00:07:37;8.40;;;5.17;;
43620;SDS011;29213;50.770;7.298;2023-08-12T00:10:03;10.63;;;7.43;;
43620;SDS011;29213;50.770;7.298;2023-08-12T00:12:31;10.90;;;6.30;;
43620;SDS011;29213;50.770;7.298;2023-08-12T00:14:57;9.13;;;6.25;;
43620;SDS011;29213;50.770;7.298;2023-08-12T00:17:22;8.55;;;5.63;;
43620;SDS011;29213;50.770;7.298;2023-08-12T00:19:47;6.72;;;5.50;;
43620;SDS011;29213;50.770;7.298;2023-08-12T00:22:13;8.45;;;6.18;;
43620;SDS011;29213;50.770;7.298;2023-08-12T00:24:38;9.90;;;6.07;;
43620;SDS011;29213;50.770;7.298;2023-08-12T00:27:05;7.97;;;5.85;;
43620;SDS011;29213;50.770;7.298;2023-08-12T00:29:31;8.60;;;5.93;;
43620;SDS011;29213;50.770;7.298;2023-08-12T00:31:57;8.25;;;5.68;;
43620;SDS011;29213;50.770;7.298;2023-08-12T00:34:23;8.05;;;6.20;;
43620;SDS011;29213;50.770;7.298;2023-08-12T00:36:48;8.30;;;6.05;;
43620;SDS011;29213;50.770;7.298;2023-08-12T00:39:13;7.65;;;5.70;;
43620;SDS011;29213;50.770;7.298;2023-08-12T00:41:39;9.25;;;6.32;;
43620;SDS011;29213;50.770;7.298;2023-08-12T00:44:04;7.55;;;5.57;;
43620;SDS011;29213;50.770;7.298;2023-08-12T00:46:30;8.80;;;5.85;;
43620;SDS011;29213;50.770;7.298;2023-08-12T00:48:55;9.52;;;6.72;;
43620;SDS011;29213;50.770;7.298;2023-08-12T00:51:21;7.30;;;6.10;;
43620;SDS011;29213;50.770;7.298;2023-08-12T00:53:47;8.60;;;5.97;;
43620;SDS011;29213;50.770;7.298;2023-08-12T00:56:14;9.02;;;6.60;;
43620;SDS011;29213;50.770;7.298;2023-08-12T00:58:41;9.98;;;7.20;;
43620;SDS011;29213;50.770;7.298;2023-08-12T01:01:08;11.07;;;8.05;;
43620;SDS011;29213;50.770;7.298;2023-08-12T01:03:33;8.93;;;7.25;;
43620;SDS011;29213;50.770;7.298;2023-08-12T01:05:59;8.88;;;6.93;;
43620;SDS011;29213;50.770;7.298;2023-08-12T01:08:28;7.70;;;6.32;;
43620;SDS011;29213;50.770;7.298;2023-08-12T01:10:58;8.10;;;6.55;;
43620;SDS011;29213;50.770;7.298;2023-08-12T01:13:37;10.25;;;8.27;;
43620;SDS011;29213;50.770;7.298;2023-08-12T01:16:12;8.68;;;6.97;;
43620;SDS011;29213;50.770;7.298;2023-08-12T01:18:40;7.82;;;6.70;;
43620;SDS011;29213;50.770;7.298;2023-08-12T01:21:07;7.15;;;6.03;;
43620;SDS011;29213;50.770;7.298;2023-08-12T01:23:34;8.43;;;6.78;;
43620;SDS011;29213;50.770;7.298;2023-08-12T01:25:59;7.80;;;6.10;;
43620;SDS011;29213;50.770;7.298;2023-08-12T01:28:25;7.72;;;5.80;;
43620;SDS011;29213;50.770;7.298;2023-08-12T01:30:54;7.50;;;5.40;;
43620;SDS011;29213;50.770;7.298;2023-08-12T01:33:34;7.82;;;5.78;;
43620;SDS011;29213;50.770;7.298;2023-08-12T01:36:21;7.63;;;5.18;;
43620;SDS011;29213;50.770;7.298;2023-08-12T01:38:50;7.28;;;5.57;;
43620;SDS011;29213;50.770;7.298;2023-08-12T01:41:16;6.85;;;4.70;;
43620;SDS011;29213;50.770;7.298;2023-08-12T01:43:45;7.57;;;5.97;;
43620;SDS011;29213;50.770;7.298;2023-08-12T01:46:11;5.80;;;4.90;;
43620;SDS011;29213;50.770;7.298;2023-08-12T01:48:37;6.28;;;4.90;;
43620;SDS011;29213;50.770;7.298;2023-08-12T01:51:02;7.47;;;5.10;;
43620;SDS011;29213;50.770;7.298;2023-08-12T01:53:28;8.95;;;5.30;;
43620;SDS011;29213;50.770;7.298;2023-08-12T01:55:53;7.93;;;5.25;;
43620;SDS011;29213;50.770;7.298;2023-08-12T01:58:19;7.25;;;5.38;;
43620;SDS011;29213;50.770;7.298;2023-08-12T02:00:44;6.53;;;4.35;;
43620;SDS011;29213;50.770;7.298;2023-08-12T02:03:10;5.70;;;3.88;;
43620;SDS011;29213;50.770;7.298;2023-08-12T02:05:35;5.97;;;4.28;;
43620;SDS011;29213;50.770;7.298;2023-08-12T02:08:02;7.15;;;5.10;;
43620;SDS011;29213;50.770;7.298;2023-08-12T02:10:29;6.88;;;4.18;;
43620;SDS011;29213;50.770;7.298;2023-08-12T02:12:54;6.40;;;4.55;;
43620;SDS011;29213;50.770;7.298;2023-08-12T02:15:20;6.38;;;3.92;;
43620;SDS011;29213;50.770;7.298;2023-08-12T02:17:45;6.68;;;4.38;;
43620;SDS011;29213;50.770;7.298;2023-08-12T02:20:11;7.05;;;3.78;;
43620;SDS011;29213;50.770;7.298;2023-08-12T02:22:36;6.00;;;4.10;;
43620;SDS011;29213;50.770;7.298;2023-08-12T02:25:02;6.28;;;3.75;;
43620;SDS011;29213;50.770;7.298;2023-08-12T02:27:27;6.55;;;3.90;;
43620;SDS011;29213;50.770;7.298;2023-08-12T02:29:53;6.03;;;4.00;;
43620;SDS011;29213;50.770;7.298;2023-08-12T02:32:18;5.85;;;3.85;;
43620;SDS011;29213;50.770;7.298;2023-08-12T02:34:43;7.25;;;4.53;;
43620;SDS011;29213;50.770;7.298;2023-08-12T02:37:09;6.00;;;4.13;;
43620;SDS011;29213;50.770;7.298;2023-08-12T02:39:34;5.57;;;4.10;;
43620;SDS011;29213;50.770;7.298;2023-08-12T02:42:00;7.00;;;4.35;;
43620;SDS011;29213;50.770;7.298;2023-08-12T02:44:25;5.60;;;4.05;;
43620;SDS011;29213;50.770;7.298;2023-08-12T02:46:51;6.07;;;3.95;;
43620;SDS011;29213;50.770;7.298;2023-08-12T02:49:16;6.75;;;4.18;;
43620;SDS011;29213;50.770;7.298;2023-08-12T02:51:41;5.93;;;4.30;;
43620;SDS011;29213;50.770;7.298;2023-08-12T02:54:07;5.32;;;3.80;;
43620;SDS011;29213;50.770;7.298;2023-08-12T02:56:32;5.03;;;3.78;;
43620;SDS011;29213;50.770;7.298;2023-08-12T02:58:58;5.38;;;4.00;;
43620;SDS011;29213;50.770;7.298;2023-08-12T03:01:23;5.65;;;3.97;;
43620;SDS011;29213;50.770;7.298;2023-08-12T03:03:50;6.30;;;3.88;;
43620;SDS011;29213;50.770;7.298;2023-08-12T03:06:15;5.57;;;4.00;;
43620;SDS011;29213;50.770;7.298;2023-08-12T03:08:41;5.78;;;3.80;;
43620;SDS011;29213;50.770;7.298;2023-08-12T03:11:06;5.15;;;3.67;;
43620;SDS011;29213;50.770;7.298;2023-08-12T03:13:32;5.72;;;3.83;;
43620;SDS011;29213;50.770;7.298;2023-08-12T03:15:57;5.00;;;3.92;;
43620;SDS011;29213;50.770;7.298;2023-08-12T03:18:23;5.90;;;3.65;;
43620;SDS011;29213;50.770;7.298;2023-08-12T03:20:48;6.15;;;4.07;;
43620;SDS011;29213;50.770;7.298;2023-08-12T03:23:14;5.32;;;3.67;;
43620;SDS011;29213;50.770;7.298;2023-08-12T03:25:39;7.88;;;4.35;;
43620;SDS011;29213;50.770;7.298;2023-08-12T03:28:05;5.18;;;3.72;;
43620;SDS011;29213;50.770;7.298;2023-08-12T03:30:30;5.75;;;4.25;;
43620;SDS011;29213;50.770;7.298;2023-08-12T03:32:56;8.00;;;3.97;;
43620;SDS011;29213;50.770;7.298;2023-08-12T03:35:23;5.63;;;4.25;;
43620;SDS011;29213;50.770;7.298;2023-08-12T03:37:48;5.93;;;4.15;;
43620;SDS011;29213;50.770;7.298;2023-08-12T03:40:14;6.32;;;4.13;;
43620;SDS011;29213;50.770;7.298;2023-08-12T03:42:39;5.40;;;4.07;;
43620;SDS011;29213;50.770;7.298;2023-08-12T03:45:04;5.55;;;4.07;;
43620;SDS011;29213;50.770;7.298;2023-08-12T03:47:31;5.20;;;3.97;;
43620;SDS011;29213;50.770;7.298;2023-08-12T03:49:56;5.18;;;4.10;;
43620;SDS011;29213;50.770;7.298;2023-08-12T03:52:22;5.78;;;3.78;;
43620;SDS011;29213;50.770;7.298;2023-08-12T03:54:47;5.43;;;4.15;;
43620;SDS011;29213;50.770;7.298;2023-08-12T03:57:12;5.90;;;4.25;;
43620;SDS011;29213;50.770;7.298;2023-08-12T03:59:38;4.80;;;3.70;;
43620;SDS011;29213;50.770;7.298;2023-08-12T04:02:03;5.55;;;4.10;;
43620;SDS011;29213;50.770;7.298;2023-08-12T04:04:29;6.03;;;4.20;;
43620;SDS011;29213;50.770;7.298;2023-08-12T04:06:55;5.95;;;3.90;;
43620;SDS011;29213;50.770;7.298;2023-08-12T04:09:20;5.85;;;3.85;;
43620;SDS011;29213;50.770;7.298;2023-08-12T04:11:46;6.07;;;3.90;;
43620;SDS011;29213;50.770;7.298;2023-08-12T04:14:12;7.18;;;4.25;;
43620;SDS011;29213;50.770;7.298;2023-08-12T04:16:39;7.20;;;4.68;;
43620;SDS011;29213;50.770;7.298;2023-08-12T04:19:05;6.43;;;4.32;;
43620;SDS011;29213;50.770;7.298;2023-08-12T04:21:30;5.13;;;3.95;;
43620;SDS011;29213;50.770;7.298;2023-08-12T04:23:56;6.47;;;4.60;;
43620;SDS011;29213;50.770;7.298;2023-08-12T04:26:21;7.95;;;4.78;;
43620;SDS011;29213;50.770;7.298;2023-08-12T04:28:47;6.38;;;4.57;;
43620;SDS011;29213;50.770;7.298;2023-08-12T04:31:12;5.47;;;4.40;;
43620;SDS011;29213;50.770;7.298;2023-08-12T04:33:37;5.53;;;4.13;;
43620;SDS011;29213;50.770;7.298;2023-08-12T04:36:03;5.95;;;4.13;;
43620;SDS011;29213;50.770;7.298;2023-08-12T04:38:29;5.43;;;3.67;;
43620;SDS011;29213;50.770;7.298;2023-08-12T04:40:54;5.50;;;3.85;;
43620;SDS011;29213;50.770;7.298;2023-08-12T04:43:20;6.53;;;3.90;;
43620;SDS011;29213;50.770;7.298;2023-08-12T04:45:46;5.57;;;4.03;;
43620;SDS011;29213;50.770;7.298;2023-08-12T04:48:12;5.13;;;3.67;;
43620;SDS011;29213;50.770;7.298;2023-08-12T04:50:38;5.00;;;3.60;;
43620;SDS011;29213;50.770;7.298;2023-08-12T04:53:04;4.97;;;3.92;;
43620;SDS011;29213;50.770;7.298;2023-08-12T04:55:30;5.47;;;4.15;;
43620;SDS011;29213;50.770;7.298;2023-08-12T04:57:56;4.30;;;3.47;;
43620;SDS011;29213;50.770;7.298;2023-08-12T05:00:22;5.50;;;3.50;;
43620;SDS011;29213;50.770;7.298;2023-08-12T05:02:47;5.90;;;4.03;;
43620;SDS011;29213;50.770;7.298;2023-08-12T05:05:13;5.85;;;3.58;;
43620;SDS011;29213;50.770;7.298;2023-08-12T05:07:39;5.20;;;3.92;;
43620;SDS011;29213;50.770;7.298;2023-08-12T05:10:04;4.90;;;3.88;;
43620;SDS011;29213;50.770;7.298;2023-08-12T05:12:30;4.78;;;3.65;;
43620;SDS011;29213;50.770;7.298;2023-08-12T05:14:55;4.20;;;3.60;;
43620;SDS011;29213;50.770;7.298;2023-08-12T05:17:21;4.30;;;3.65;;
43620;SDS011;29213;50.770;7.298;2023-08-12T05:19:47;4.72;;;3.40;;
43620;SDS011;29213;50.770;7.298;2023-08-12T05:22:12;4.18;;;3.13;;
43620;SDS011;29213;50.770;7.298;2023-08-12T05:24:38;5.22;;;3.42;;
43620;SDS011;29213;50.770;7.298;2023-08-12T05:27:03;4.32;;;3.38;;
43620;SDS011;29213;50.770;7.298;2023-08-12T05:29:31;5.43;;;3.40;;
43620;SDS011;29213;50.770;7.298;2023-08-12T05:31:57;4.68;;;3.00;;
43620;SDS011;29213;50.770;7.298;2023-08-12T05:34:22;5.65;;;3.53;;
43620;SDS011;29213;50.770;7.298;2023-08-12T05:36:47;4.97;;;3.42;;
43620;SDS011;29213;50.770;7.298;2023-08-12T05:39:13;4.07;;;2.80;;
43620;SDS011;29213;50.770;7.298;2023-08-12T05:41:39;4.47;;;2.95;;
43620;SDS011;29213;50.770;7.298;2023-08-12T05:44:04;4.38;;;3.13;;
43620;SDS011;29213;50.770;7.298;2023-08-12T05:46:30;4.75;;;3.17;;
43620;SDS011;29213;50.770;7.298;2023-08-12T05:48:56;5.38;;;3.08;;
43620;SDS011;29213;50.770;7.298;2023-08-12T05:51:21;4.10;;;2.67;;
43620;SDS011;29213;50.770;7.298;2023-08-12T05:53:47;3.85;;;2.70;;
43620;SDS011;29213;50.770;7.298;2023-08-12T05:56:13;5.10;;;3.00;;
43620;SDS011;29213;50.770;7.298;2023-08-12T05:58:38;5.47;;;3.00;;
43620;SDS011;29213;50.770;7.298;2023-08-12T06:01:04;5.15;;;2.85;;
43620;SDS011;29213;50.770;7.298;2023-08-12T06:03:29;3.80;;;3.00;;
43620;SDS011;29213;50.770;7.298;2023-08-12T06:05:55;4.70;;;3.30;;
43620;SDS011;29213;50.770;7.298;2023-08-12T06:08:20;4.40;;;3.47;;
43620;SDS011;29213;50.770;7.298;2023-08-12T06:10:46;4.38;;;2.97;;
43620;SDS011;29213;50.770;7.298;2023-08-12T06:13:11;4.25;;;3.20;;
43620;SDS011;29213;50.770;7.298;2023-08-12T06:15:36;4.72;;;2.92;;
43620;SDS011;29213;50.770;7.298;2023-08-12T06:18:02;4.13;;;3.22;;
43620;SDS011;29213;50.770;7.298;2023-08-12T06:20:28;4.30;;;3.00;;
43620;SDS011;29213;50.770;7.298;2023-08-12T06:22:53;4.50;;;3.30;;
43620;SDS011;29213;50.770;7.298;2023-08-12T06:25:19;5.72;;;2.95;;
43620;SDS011;29213;50.770;7.298;2023-08-12T06:27:45;4.72;;;3.42;;
43620;SDS011;29213;50.770;7.298;2023-08-12T06:30:12;5.03;;;3.10;;
43620;SDS011;29213;50.770;7.298;2023-08-12T06:32:38;5.15;;;3.03;;
43620;SDS011;29213;50.770;7.298;2023-08-12T06:35:03;5.88;;;2.80;;
43620;SDS011;29213;50.770;7.298;2023-08-12T06:37:29;4.80;;;2.80;;
43620;SDS011;29213;50.770;7.298;2023-08-12T06:39:55;5.35;;;2.50;;
43620;SDS011;29213;50.770;7.298;2023-08-12T06:42:20;5.18;;;2.70;;
43620;SDS011;29213;50.770;7.298;2023-08-12T06:44:49;3.88;;;2.25;;
43620;SDS011;29213;50.770;7.298;2023-08-12T06:47:19;5.05;;;2.55;;
43620;SDS011;29213;50.770;7.298;2023-08-12T06:49:45;4.82;;;2.30;;
43620;SDS011;29213;50.770;7.298;2023-08-12T06:52:10;5.45;;;2.33;;
43620;SDS011;29213;50.770;7.298;2023-08-12T06:54:35;4.82;;;2.00;;
43620;SDS011;29213;50.770;7.298;2023-08-12T06:57:01;3.55;;;1.90;;
43620;SDS011;29213;50.770;7.298;2023-08-12T06:59:26;4.13;;;2.13;;
43620;SDS011;29213;50.770;7.298;2023-08-12T07:01:51;3.72;;;2.20;;
43620;SDS011;29213;50.770;7.298;2023-08-12T07:04:17;5.35;;;2.20;;
43620;SDS011;29213;50.770;7.298;2023-08-12T07:06:42;4.07;;;2.28;;
43620;SDS011;29213;50.770;7.298;2023-08-12T07:09:08;3.90;;;2.35;;
43620;SDS011;29213;50.770;7.298;2023-08-12T07:11:33;4.75;;;2.28;;
43620;SDS011;29213;50.770;7.298;2023-08-12T07:13:59;4.97;;;2.30;;
43620;SDS011;29213;50.770;7.298;2023-08-12T07:16:24;3.40;;;2.00;;
43620;SDS011;29213;50.770;7.298;2023-08-12T07:18:49;3.67;;;2.10;;
43620;SDS011;29213;50.770;7.298;2023-08-12T07:21:15;4.00;;;1.90;;
43620;SDS011;29213;50.770;7.298;2023-08-12T07:23:40;3.47;;;2.00;;
43620;SDS011;29213;50.770;7.298;2023-08-12T07:26:06;4.35;;;2.08;;
43620;SDS011;29213;50.770;7.298;2023-08-12T07:28:31;3.85;;;2.20;;
43620;SDS011;29213;50.770;7.298;2023-08-12T07:30:57;3.50;;;2.10;;
43620;SDS011;29213;50.770;7.298;2023-08-12T07:33:26;4.18;;;2.40;;
43620;SDS011;29213;50.770;7.298;2023-08-12T07:35:51;3.83;;;2.13;;
43620;SDS011;29213;50.770;7.298;2023-08-12T07:38:16;3.30;;;2.10;;
43620;SDS011;29213;50.770;7.298;2023-08-12T07:40:42;3.30;;;2.10;;
43620;SDS011;29213;50.770;7.298;2023-08-12T07:43:07;4.60;;;2.15;;
43620;SDS011;29213;50.770;7.298;2023-08-12T07:45:33;3.75;;;2.00;;
43620;SDS011;29213;50.770;7.298;2023-08-12T07:47:58;3.97;;;2.00;;
43620;SDS011;29213;50.770;7.298;2023-08-12T07:50:24;4.25;;;1.83;;
43620;SDS011;29213;50.770;7.298;2023-08-12T07:52:49;3.28;;;1.77;;
43620;SDS011;29213;50.770;7.298;2023-08-12T07:55:15;4.20;;;1.88;;
43620;SDS011;29213;50.770;7.298;2023-08-12T07:57:40;3.58;;;1.90;;
43620;SDS011;29213;50.770;7.298;2023-08-12T08:00:06;4.07;;;2.10;;
43620;SDS011;29213;50.770;7.298;2023-08-12T08:02:33;4.18;;;2.00;;
43620;SDS011;29213;50.770;7.298;2023-08-12T08:04:58;3.47;;;2.00;;
43620;SDS011;29213;50.770;7.298;2023-08-12T08:07:24;3.45;;;1.73;;
43620;SDS011;29213;50.770;7.298;2023-08-12T08:09:50;3.35;;;1.80;;
43620;SDS011;29213;50.770;7.298;2023-08-12T08:12:16;4.03;;;2.17;;
43620;SDS011;29213;50.770;7.298;2023-08-12T08:14:42;3.00;;;1.80;;
43620;SDS011;29213;50.770;7.298;2023-08-12T08:17:07;3.75;;;2.00;;
43620;SDS011;29213;50.770;7.298;2023-08-12T08:19:33;3.80;;;2.00;;
43620;SDS011;29213;50.770;7.298;2023-08-12T08:21:58;3.95;;;2.20;;
43620;SDS011;29213;50.770;7.298;2023-08-12T08:24:23;2.95;;;1.70;;
43620;SDS011;29213;50.770;7.298;2023-08-12T08:26:49;4.13;;;1.92;;
43620;SDS011;29213;50.770;7.298;2023-08-12T08:29:14;4.00;;;2.10;;
43620;SDS011;29213;50.770;7.298;2023-08-12T08:31:40;3.67;;;1.88;;
43620;SDS011;29213;50.770;7.298;2023-08-12T08:34:05;3.75;;;2.10;;
43620;SDS011;29213;50.770;7.298;2023-08-12T08:36:31;3.10;;;1.70;;
43620;SDS011;29213;50.770;7.298;2023-08-12T08:38:57;4.43;;;1.98;;
43620;SDS011;29213;50.770;7.298;2023-08-12T08:41:23;3.42;;;1.90;;
43620;SDS011;29213;50.770;7.298;2023-08-12T08:43:49;3.40;;;1.88;;
43620;SDS011;29213;50.770;7.298;2023-08-12T08:46:17;3.85;;;1.92;;
43620;SDS011;29213;50.770;7.298;2023-08-12T08:48:45;3.00;;;1.63;;
43620;SDS011;29213;50.770;7.298;2023-08-12T08:51:13;3.05;;;1.73;;
43620;SDS011;29213;50.770;7.298;2023-08-12T08:53:39;3.15;;;1.83;;
43620;SDS011;29213;50.770;7.298;2023-08-12T08:56:09;3.35;;;1.70;;
43620;SDS011;29213;50.770;7.298;2023-08-12T08:58:37;3.00;;;1.60;;
43620;SDS011;29213;50.770;7.298;2023-08-12T09:01:04;5.20;;;1.98;;
43620;SDS011;29213;50.770;7.298;2023-08-12T09:03:31;3.05;;;1.63;;
43620;SDS011;29213;50.770;7.298;2023-08-12T09:05:58;4.50;;;1.80;;
43620;SDS011;29213;50.770;7.298;2023-08-12T09:08:24;3.53;;;1.80;;
43620;SDS011;29213;50.770;7.298;2023-08-12T09:10:52;2.92;;;1.75;;
43620;SDS011;29213;50.770;7.298;2023-08-12T09:13:19;3.90;;;1.95;;
43620;SDS011;29213;50.770;7.298;2023-08-12T09:15:45;4.45;;;1.80;;
43620;SDS011;29213;50.770;7.298;2023-08-12T09:18:10;3.53;;;1.98;;
43620;SDS011;29213;50.770;7.298;2023-08-12T09:20:36;3.17;;;1.90;;
43620;SDS011;29213;50.770;7.298;2023-08-12T09:23:02;4.38;;;1.65;;
43620;SDS011;29213;50.770;7.298;2023-08-12T09:25:28;2.83;;;1.77;;
43620;SDS011;29213;50.770;7.298;2023-08-12T09:28:00;3.55;;;1.92;;
43620;SDS011;29213;50.770;7.298;2023-08-12T09:30:29;3.85;;;2.03;;
43620;SDS011;29213;50.770;7.298;2023-08-12T09:33:02;3.35;;;1.80;;
43620;SDS011;29213;50.770;7.298;2023-08-12T09:35:36;3.58;;;1.70;;
43620;SDS011;29213;50.770;7.298;2023-08-12T09:38:05;2.88;;;1.70;;
43620;SDS011;29213;50.770;7.298;2023-08-12T09:40:33;3.30;;;1.65;;
43620;SDS011;29213;50.770;7.298;2023-08-12T09:43:00;3.40;;;1.63;;
43620;SDS011;29213;50.770;7.298;2023-08-12T09:45:25;3.47;;;1.80;;
43620;SDS011;29213;50.770;7.298;2023-08-12T09:47:51;3.20;;;1.90;;
43620;SDS011;29213;50.770;7.298;2023-08-12T09:50:23;2.85;;;1.58;;
43620;SDS011;29213;50.770;7.298;2023-08-12T09:52:52;3.88;;;1.55;;
43620;SDS011;29213;50.770;7.298;2023-08-12T09:55:19;2.78;;;1.55;;
43620;SDS011;29213;50.770;7.298;2023-08-12T09:57:54;3.15;;;1.65;;
43620;SDS011;29213;50.770;7.298;2023-08-12T10:00:21;3.60;;;1.73;;
43620;SDS011;29213;50.770;7.298;2023-08-12T10:02:48;2.90;;;1.60;;
43620;SDS011;29213;50.770;7.298;2023-08-12T10:05:18;3.72;;;1.63;;
43620;SDS011;29213;50.770;7.298;2023-08-12T10:07:47;3.92;;;1.70;;
43620;SDS011;29213;50.770;7.298;2023-08-12T10:10:13;3.25;;;1.70;;
43620;SDS011;29213;50.770;7.298;2023-08-12T10:12:40;3.25;;;1.70;;
43620;SDS011;29213;50.770;7.298;2023-08-12T10:15:06;3.20;;;1.60;;
43620;SDS011;29213;50.770;7.298;2023-08-12T10:17:33;2.30;;;1.40;;
43620;SDS011;29213;50.770;7.298;2023-08-12T10:20:00;2.95;;;1.70;;
43620;SDS011;29213;50.770;7.298;2023-08-12T10:22:29;3.30;;;1.80;;
43620;SDS011;29213;50.770;7.298;2023-08-12T10:24:58;3.00;;;1.63;;
43620;SDS011;29213;50.770;7.298;2023-08-12T10:27:25;3.97;;;1.80;;
43620;SDS011;29213;50.770;7.298;2023-08-12T10:29:50;2.40;;;1.50;;
43620;SDS011;29213;50.770;7.298;2023-08-12T10:32:16;3.05;;;1.60;;
43620;SDS011;29213;50.770;7.298;2023-08-12T10:34:41;3.30;;;1.50;;
43620;SDS011;29213;50.770;7.298;2023-08-12T10:37:08;3.03;;;1.50;;
43620;SDS011;29213;50.770;7.298;2023-08-12T10:39:35;2.60;;;1.33;;
43620;SDS011;29213;50.770;7.298;2023-08-12T10:42:00;2.38;;;1.20;;
43620;SDS011;29213;50.770;7.298;2023-08-12T10:44:26;2.45;;;1.27;;
43620;SDS011;29213;50.770;7.298;2023-08-12T10:47:07;4.53;;;1.60;;
43620;SDS011;29213;50.770;7.298;2023-08-12T10:49:38;2.83;;;1.40;;
43620;SDS011;29213;50.770;7.298;2023-08-12T10:52:46;2.80;;;1.38;;
43620;SDS011;29213;50.770;7.298;2023-08-12T10:55:21;3.00;;;1.38;;
43620;SDS011;29213;50.770;7.298;2023-08-12T10:57:52;2.70;;;1.40;;
43620;SDS011;29213;50.770;7.298;2023-08-12T11:00:19;2.63;;;1.27;;
43620;SDS011;29213;50.770;7.298;2023-08-12T11:02:49;2.70;;;1.45;;
43620;SDS011;29213;50.770;7.298;2023-08-12T11:05:16;2.55;;;1.40;;
43620;SDS011;29213;50.770;7.298;2023-08-12T11:07:44;2.95;;;1.52;;
43620;SDS011;29213;50.770;7.298;2023-08-12T11:10:23;2.90;;;1.50;;
43620;SDS011;29213;50.770;7.298;2023-08-12T11:15:16;3.03;;;1.60;;
43620;SDS011;29213;50.770;7.298;2023-08-12T11:17:42;4.07;;;1.60;;
43620;SDS011;29213;50.770;7.298;2023-08-12T11:20:11;2.92;;;1.35;;
43620;SDS011;29213;50.770;7.298;2023-08-12T11:22:42;3.08;;;1.58;;
43620;SDS011;29213;50.770;7.298;2023-08-12T11:25:12;2.90;;;1.45;;
43620;SDS011;29213;50.770;7.298;2023-08-12T11:27:42;2.88;;;1.30;;
43620;SDS011;29213;50.770;7.298;2023-08-12T11:30:12;3.97;;;1.50;;
43620;SDS011;29213;50.770;7.298;2023-08-12T11:32:44;3.35;;;1.52;;
43620;SDS011;29213;50.770;7.298;2023-08-12T11:35:12;3.20;;;1.50;;
43620;SDS011;29213;50.770;7.298;2023-08-12T11:37:39;2.40;;;1.40;;
43620;SDS011;29213;50.770;7.298;2023-08-12T11:40:06;3.05;;;1.30;;
43620;SDS011;29213;50.770;7.298;2023-08-12T11:42:39;2.28;;;1.15;;
43620;SDS011;29213;50.770;7.298;2023-08-12T11:45:06;2.08;;;1.20;;
43620;SDS011;29213;50.770;7.298;2023-08-12T11:47:33;2.17;;;1.20;;
43620;SDS011;29213;50.770;7.298;2023-08-12T11:50:05;2.42;;;1.10;;
43620;SDS011;29213;50.770;7.298;2023-08-12T11:52:32;2.67;;;1.20;;
43620;SDS011;29213;50.770;7.298;2023-08-12T11:54:57;1.90;;;1.00;;
43620;SDS011;29213;50.770;7.298;2023-08-12T11:57:24;2.70;;;1.27;;
43620;SDS011;29213;50.770;7.298;2023-08-12T11:59:51;2.40;;;1.20;;
43620;SDS011;29213;50.770;7.298;2023-08-12T12:02:16;2.22;;;1.33;;
43620;SDS011;29213;50.770;7.298;2023-08-12T12:04:42;2.38;;;1.27;;
43620;SDS011;29213;50.770;7.298;2023-08-12T12:07:21;2.08;;;1.20;;
43620;SDS011;29213;50.770;7.298;2023-08-12T12:09:51;2.65;;;1.25;;
43620;SDS011;29213;50.770;7.298;2023-08-12T12:12:18;4.30;;;1.38;;
43620;SDS011;29213;50.770;7.298;2023-08-12T12:14:46;2.85;;;1.20;;
43620;SDS011;29213;50.770;7.298;2023-08-12T12:17:14;2.95;;;1.20;;
43620;SDS011;29213;50.770;7.298;2023-08-12T12:19:40;2.75;;;1.38;;
43620;SDS011;29213;50.770;7.298;2023-08-12T12:22:06;3.03;;;1.30;;
43620;SDS011;29213;50.770;7.298;2023-08-12T12:24:32;2.80;;;1.30;;
43620;SDS011;29213;50.770;7.298;2023-08-12T12:27:09;2.60;;;1.42;;
43620;SDS011;29213;50.770;7.298;2023-08-12T12:29:34;4.40;;;1.20;;
43620;SDS011;29213;50.770;7.298;2023-08-12T12:32:00;2.38;;;1.10;;
43620;SDS011;29213;50.770;7.298;2023-08-12T12:34:25;2.30;;;1.20;;
43620;SDS011;29213;50.770;7.298;2023-08-12T12:36:50;3.05;;;1.10;;
43620;SDS011;29213;50.770;7.298;2023-08-12T12:39:16;2.40;;;1.00;;
43620;SDS011;29213;50.770;7.298;2023-08-12T12:41:42;2.30;;;1.10;;
43620;SDS011;29213;50.770;7.298;2023-08-12T12:44:07;1.80;;;1.00;;
43620;SDS011;29213;50.770;7.298;2023-08-12T12:46:33;3.08;;;1.10;;
43620;SDS011;29213;50.770;7.298;2023-08-12T12:48:58;1.98;;;1.17;;
43620;SDS011;29213;50.770;7.298;2023-08-12T12:51:24;2.10;;;1.10;;
43620;SDS011;29213;50.770;7.298;2023-08-12T12:53:49;2.20;;;1.00;;
43620;SDS011;29213;50.770;7.298;2023-08-12T12:56:14;2.08;;;1.02;;
43620;SDS011;29213;50.770;7.298;2023-08-12T12:58:40;2.05;;;0.90;;
43620;SDS011;29213;50.770;7.298;2023-08-12T13:01:05;2.30;;;1.08;;
43620;SDS011;29213;50.770;7.298;2023-08-12T13:03:31;1.90;;;0.93;;
43620;SDS011;29213;50.770;7.298;2023-08-12T13:05:57;2.10;;;1.10;;
43620;SDS011;29213;50.770;7.298;2023-08-12T13:08:23;2.17;;;1.10;;
43620;SDS011;29213;50.770;7.298;2023-08-12T13:10:49;3.05;;;1.30;;
43620;SDS011;29213;50.770;7.298;2023-08-12T13:13:16;5.97;;;3.00;;
43620;SDS011;29213;50.770;7.298;2023-08-12T13:15:42;4.25;;;2.05;;
43620;SDS011;29213;50.770;7.298;2023-08-12T13:18:07;4.43;;;1.63;;
43620;SDS011;29213;50.770;7.298;2023-08-12T13:20:33;3.15;;;1.50;;
43620;SDS011;29213;50.770;7.298;2023-08-12T13:22:59;3.42;;;1.50;;
43620;SDS011;29213;50.770;7.298;2023-08-12T13:25:25;3.35;;;1.48;;
43620;SDS011;29213;50.770;7.298;2023-08-12T13:27:53;3.65;;;1.60;;
43620;SDS011;29213;50.770;7.298;2023-08-12T13:30:18;4.18;;;1.40;;
43620;SDS011;29213;50.770;7.298;2023-08-12T13:32:44;3.70;;;1.17;;
43620;SDS011;29213;50.770;7.298;2023-08-12T13:35:10;2.70;;;1.25;;
43620;SDS011;29213;50.770;7.298;2023-08-12T13:37:36;3.03;;;1.38;;
43620;SDS011;29213;50.770;7.298;2023-08-12T13:40:01;2.67;;;1.30;;
43620;SDS011;29213;50.770;7.298;2023-08-12T13:42:27;2.58;;;1.17;;
43620;SDS011;29213;50.770;7.298;2023-08-12T13:44:52;2.80;;;1.20;;
43620;SDS011;29213;50.770;7.298;2023-08-12T13:47:18;1.90;;;0.90;;
43620;SDS011;29213;50.770;7.298;2023-08-12T13:49:43;1.65;;;0.90;;
43620;SDS011;29213;50.770;7.298;2023-08-12T13:52:08;2.25;;;1.20;;
43620;SDS011;29213;50.770;7.298;2023-08-12T13:54:34;2.25;;;1.10;;
43620;SDS011;29213;50.770;7.298;2023-08-12T13:56:59;1.90;;;0.90;;
43620;SDS011;29213;50.770;7.298;2023-08-12T13:59:25;2.00;;;1.10;;
43620;SDS011;29213;50.770;7.298;2023-08-12T14:01:50;2.83;;;1.13;;
43620;SDS011;29213;50.770;7.298;2023-08-12T14:04:16;2.17;;;1.00;;
43620;SDS011;29213;50.770;7.298;2023-08-12T14:06:41;2.08;;;1.00;;
43620;SDS011;29213;50.770;7.298;2023-08-12T14:09:08;2.60;;;0.85;;
43620;SDS011;29213;50.770;7.298;2023-08-12T14:11:34;1.65;;;0.80;;
43620;SDS011;29213;50.770;7.298;2023-08-12T14:14:00;1.90;;;0.90;;
43620;SDS011;29213;50.770;7.298;2023-08-12T14:16:26;1.08;;;0.60;;
43620;SDS011;29213;50.770;7.298;2023-08-12T14:18:51;2.05;;;0.70;;
43620;SDS011;29213;50.770;7.298;2023-08-12T14:21:17;2.67;;;0.68;;
43620;SDS011;29213;50.770;7.298;2023-08-12T14:23:42;1.38;;;0.60;;
43620;SDS011;29213;50.770;7.298;2023-08-12T14:26:08;1.10;;;0.60;;
43620;SDS011;29213;50.770;7.298;2023-08-12T14:28:33;1.55;;;0.60;;
43620;SDS011;29213;50.770;7.298;2023-08-12T14:30:58;1.38;;;0.65;;
43620;SDS011;29213;50.770;7.298;2023-08-12T14:33:24;1.00;;;0.50;;
43620;SDS011;29213;50.770;7.298;2023-08-12T14:35:50;0.55;;;0.50;;
43620;SDS011;29213;50.770;7.298;2023-08-12T14:38:19;0.98;;;0.52;;
43620;SDS011;29213;50.770;7.298;2023-08-12T14:40:47;1.13;;;0.60;;
43620;SDS011;29213;50.770;7.298;2023-08-12T14:43:12;1.00;;;0.50;;
43620;SDS011;29213;50.770;7.298;2023-08-12T14:45:38;1.50;;;0.60;;